createdAt,value
2019-03-30T00:01:17.362Z,99.90
2019-03-30T00:03:48.810Z,99.90
2019-03-30T00:06:20.130Z,99.90
2019-03-30T00:08:51.477Z,99.90
2019-03-30T00:11:22.789Z,99.90
2019-03-30T00:13:54.169Z,99.90
2019-03-30T00:16:25.485Z,99.90
2019-03-30T00:18:56.784Z,99.90
2019-03-30T00:21:28.077Z,99.90
2019-03-30T00:24:03.782Z,99.90
2019-03-30T00:26:36.105Z,99.90
2019-03-30T00:29:07.439Z,99.90
2019-03-30T00:31:38.872Z,99.90
2019-03-30T00:34:10.132Z,99.90
2019-03-30T00:36:41.554Z,99.90
2019-03-30T00:39:12.936Z,99.90
2019-03-30T00:41:44.198Z,99.90
2019-03-30T00:44:15.603Z,99.90
2019-03-30T00:46:47.225Z,99.90
2019-03-30T00:49:18.599Z,99.90
2019-03-30T00:51:50.019Z,99.90
2019-03-30T00:54:22.644Z,99.90
2019-03-30T00:56:53.870Z,99.90
2019-03-30T00:59:25.117Z,99.90
2019-03-30T01:01:56.423Z,99.90
2019-03-30T01:04:27.787Z,99.90
2019-03-30T01:06:59.106Z,99.90
2019-03-30T01:09:30.510Z,99.90
2019-03-30T01:12:01.875Z,99.90
2019-03-30T01:14:33.283Z,99.90
2019-03-30T01:17:04.912Z,99.90
2019-03-30T01:19:36.193Z,99.90
2019-03-30T01:22:07.504Z,99.90
2019-03-30T01:24:38.873Z,99.90
2019-03-30T01:27:10.147Z,99.90
2019-03-30T01:29:41.469Z,99.90
2019-03-30T01:32:12.870Z,99.90
2019-03-30T01:34:44.405Z,99.90
2019-03-30T01:37:15.723Z,99.90
2019-03-30T01:39:47.223Z,99.90
2019-03-30T01:42:18.487Z,99.90
2019-03-30T01:44:49.973Z,99.90
2019-03-30T01:47:21.442Z,99.90
2019-03-30T01:49:54.475Z,99.90
2019-03-30T01:52:25.738Z,99.90
2019-03-30T01:54:57.001Z,99.90
2019-03-30T01:57:28.513Z,99.90
2019-03-30T02:00:00.785Z,99.90
2019-03-30T02:02:32.540Z,99.90
2019-03-30T02:05:04.647Z,99.90
2019-03-30T02:07:35.994Z,99.90
2019-03-30T02:10:08.973Z,99.90
2019-03-30T02:12:40.368Z,99.90
2019-03-30T02:15:11.953Z,99.90
2019-03-30T02:17:43.266Z,99.90
2019-03-30T02:20:30.591Z,99.90
2019-03-30T02:22:54.916Z,99.90
2019-03-30T02:25:26.183Z,99.90
2019-03-30T02:27:57.572Z,99.90
2019-03-30T02:30:28.919Z,99.90
2019-03-30T02:33:00.329Z,99.90
2019-03-30T02:35:31.653Z,99.90
2019-03-30T02:38:03.230Z,99.90
2019-03-30T02:40:34.562Z,99.90
2019-03-30T02:43:06.173Z,99.90
2019-03-30T02:45:37.527Z,99.90
2019-03-30T02:48:09.047Z,99.90
2019-03-30T02:50:49.509Z,99.90
2019-03-30T02:53:13.519Z,99.90
2019-03-30T02:55:44.845Z,99.90
2019-03-30T02:58:16.226Z,99.90
2019-03-30T03:00:47.614Z,99.90
2019-03-30T03:03:19.217Z,99.90
2019-03-30T03:05:50.645Z,99.90
2019-03-30T03:08:22.318Z,99.90
2019-03-30T03:10:53.770Z,99.90
2019-03-30T03:13:25.111Z,99.90
2019-03-30T03:15:56.376Z,99.90
2019-03-30T03:18:27.759Z,99.90
2019-03-30T03:21:07.423Z,99.90
2019-03-30T03:23:32.154Z,99.90
2019-03-30T03:26:03.583Z,99.90
2019-03-30T03:28:35.052Z,99.90
2019-03-30T03:31:06.382Z,99.90
2019-03-30T03:33:37.848Z,99.90
2019-03-30T03:36:09.334Z,99.90
2019-03-30T03:38:40.686Z,99.90
2019-03-30T03:41:13.003Z,99.90
2019-03-30T03:43:44.389Z,99.90
2019-03-30T03:46:15.729Z,99.90
2019-03-30T03:48:47.173Z,99.90
2019-03-30T03:51:26.155Z,99.90
2019-03-30T03:53:53.863Z,99.90
2019-03-30T03:56:27.030Z,99.90
2019-03-30T03:58:58.577Z,99.90
2019-03-30T04:01:31.767Z,99.90
2019-03-30T04:04:04.471Z,99.90
2019-03-30T04:06:39.147Z,99.90
2019-03-30T04:09:10.527Z,99.90
2019-03-30T04:11:44.058Z,99.90
2019-03-30T04:14:18.020Z,99.90
2019-03-30T04:16:49.386Z,99.90
2019-03-30T04:19:20.791Z,99.90
2019-03-30T04:21:52.117Z,99.90
2019-03-30T04:24:23.377Z,99.90
2019-03-30T04:26:54.722Z,99.90
2019-03-30T04:29:26.056Z,99.90
2019-03-30T04:31:57.376Z,99.90
2019-03-30T04:34:28.688Z,99.90
2019-03-30T04:36:59.995Z,99.90
2019-03-30T04:39:31.380Z,99.90
2019-03-30T04:42:02.913Z,99.90
2019-03-30T04:44:34.255Z,99.90
2019-03-30T04:47:06.131Z,99.90
2019-03-30T04:49:37.898Z,99.90
2019-03-30T04:52:11.714Z,99.90
2019-03-30T04:54:43.206Z,99.90
2019-03-30T04:57:14.613Z,99.90
2019-03-30T05:00:14.738Z,99.90
2019-03-30T05:02:48.533Z,99.90
2019-03-30T05:05:19.840Z,99.90
2019-03-30T05:07:51.294Z,99.90
2019-03-30T05:10:22.593Z,99.90
2019-03-30T05:12:53.917Z,99.90
2019-03-30T05:15:25.436Z,99.90
2019-03-30T05:17:56.832Z,99.90
2019-03-30T05:20:28.220Z,99.90
2019-03-30T05:22:59.791Z,99.90
2019-03-30T05:25:31.128Z,99.90
2019-03-30T05:28:02.573Z,99.90
2019-03-30T05:30:33.900Z,99.90
2019-03-30T05:33:06.992Z,99.90
2019-03-30T05:35:39.551Z,99.90
2019-03-30T05:38:10.945Z,99.90
2019-03-30T05:40:42.228Z,99.90
2019-03-30T05:43:13.530Z,99.90
2019-03-30T05:45:44.898Z,99.90
2019-03-30T05:48:16.199Z,99.90
2019-03-30T05:50:47.926Z,99.90
2019-03-30T05:53:19.226Z,99.90
2019-03-30T05:55:50.700Z,99.90
2019-03-30T05:58:22.058Z,99.90
2019-03-30T06:00:53.438Z,99.90
2019-03-30T06:03:24.909Z,99.90
2019-03-30T06:06:00.860Z,99.90
2019-03-30T06:08:32.165Z,99.90
2019-03-30T06:11:03.427Z,99.90
2019-03-30T06:13:34.709Z,99.90
2019-03-30T06:16:06.149Z,99.90
2019-03-30T06:18:38.515Z,99.90
2019-03-30T06:21:10.089Z,99.90
2019-03-30T06:23:41.490Z,99.90
2019-03-30T06:26:14.553Z,99.90
2019-03-30T06:28:46.018Z,99.90
2019-03-30T06:31:17.409Z,99.90
2019-03-30T06:33:49.771Z,99.90
2019-03-30T06:36:21.011Z,99.90
2019-03-30T06:38:52.463Z,99.90
2019-03-30T06:41:24.894Z,99.90
2019-03-30T06:43:56.249Z,99.90
2019-03-30T06:46:31.097Z,99.90
2019-03-30T06:49:02.539Z,99.90
2019-03-30T06:51:33.834Z,99.90
2019-03-30T06:54:08.281Z,99.90
2019-03-30T06:56:39.519Z,99.90
2019-03-30T06:59:10.816Z,99.90
2019-03-30T07:01:42.519Z,99.90
2019-03-30T07:04:15.541Z,99.90
2019-03-30T07:06:47.620Z,99.90
2019-03-30T07:09:21.935Z,99.90
2019-03-30T07:11:56.262Z,99.90
2019-03-30T07:14:32.419Z,99.90
2019-03-30T07:17:05.624Z,99.90
2019-03-30T07:19:40.331Z,99.90
2019-03-30T07:22:11.883Z,99.90
2019-03-30T07:24:43.404Z,99.90
2019-03-30T07:27:18.338Z,99.90
2019-03-30T07:29:49.698Z,99.90
2019-03-30T07:32:21.101Z,99.90
2019-03-30T07:34:52.476Z,99.90
2019-03-30T07:37:23.709Z,99.90
2019-03-30T07:39:55.108Z,99.90
2019-03-30T07:42:26.586Z,99.90
2019-03-30T07:44:59.913Z,99.90
2019-03-30T07:47:32.861Z,99.90
2019-03-30T07:50:08.926Z,99.90
2019-03-30T07:52:40.355Z,99.90
2019-03-30T07:55:11.944Z,99.90
2019-03-30T07:57:43.392Z,99.90
2019-03-30T08:00:15.690Z,99.90
2019-03-30T08:02:46.922Z,99.90
2019-03-30T08:05:18.308Z,99.90
2019-03-30T08:07:49.798Z,99.90
2019-03-30T08:10:21.241Z,99.90
2019-03-30T08:12:52.700Z,99.90
2019-03-30T08:15:24.191Z,99.90
2019-03-30T08:17:55.543Z,99.90
2019-03-30T08:20:28.351Z,99.90
2019-03-30T08:22:59.589Z,99.90
2019-03-30T08:25:31.053Z,99.90
2019-03-30T08:28:02.493Z,99.90
2019-03-30T08:30:33.810Z,99.90
2019-03-30T08:33:05.113Z,99.90
2019-03-30T08:35:36.425Z,99.90
2019-03-30T08:38:07.669Z,99.90
2019-03-30T08:40:38.916Z,99.90
2019-03-30T08:43:10.299Z,99.90
2019-03-30T08:45:41.589Z,99.90
2019-03-30T08:48:13.035Z,99.90
2019-03-30T08:50:44.558Z,99.90
2019-03-30T08:53:17.622Z,99.80
2019-03-30T08:55:51.011Z,99.10
2019-03-30T08:58:22.609Z,99.60
2019-03-30T09:00:53.859Z,99.20
2019-03-30T09:03:25.125Z,98.80
2019-03-30T09:05:57.001Z,98.70
2019-03-30T09:08:28.317Z,98.00
2019-03-30T09:10:59.863Z,99.10
2019-03-30T09:13:31.604Z,98.50
2019-03-30T09:16:03.072Z,98.30
2019-03-30T09:18:34.368Z,98.00
2019-03-30T09:21:06.107Z,98.00
2019-03-30T09:23:37.493Z,98.10
2019-03-30T09:26:08.892Z,98.40
2019-03-30T09:28:40.856Z,97.30
2019-03-30T09:31:12.219Z,97.40
2019-03-30T09:33:43.691Z,99.20
2019-03-30T09:36:15.156Z,97.00
2019-03-30T09:38:47.682Z,96.90
2019-03-30T09:41:19.083Z,97.60
2019-03-30T09:43:50.533Z,97.90
2019-03-30T09:46:21.800Z,97.00
2019-03-30T09:48:53.037Z,97.60
2019-03-30T09:51:24.491Z,97.90
2019-03-30T09:53:55.959Z,97.40
2019-03-30T09:56:27.224Z,96.70
2019-03-30T09:58:58.626Z,96.80
2019-03-30T10:01:30.107Z,96.90
2019-03-30T10:04:02.471Z,97.00
2019-03-30T10:06:34.814Z,97.10
2019-03-30T10:09:07.529Z,95.70
2019-03-30T10:11:38.859Z,95.30
2019-03-30T10:14:10.366Z,95.10
2019-03-30T10:16:43.709Z,95.50
2019-03-30T10:19:14.962Z,95.60
2019-03-30T10:21:46.467Z,94.40
2019-03-30T10:24:17.930Z,94.90
2019-03-30T10:26:49.324Z,95.10
2019-03-30T10:29:20.718Z,93.50
2019-03-30T10:31:51.967Z,93.80
2019-03-30T10:34:24.467Z,94.10
2019-03-30T10:36:55.792Z,93.40
2019-03-30T10:39:27.066Z,93.00
2019-03-30T10:41:58.383Z,92.20
2019-03-30T10:44:29.673Z,93.10
2019-03-30T10:47:01.120Z,93.70
2019-03-30T10:49:32.518Z,92.40
2019-03-30T10:52:03.957Z,92.00
2019-03-30T10:54:35.359Z,91.40
2019-03-30T10:57:10.126Z,92.80
2019-03-30T10:59:47.504Z,92.10
2019-03-30T11:02:19.053Z,90.40
2019-03-30T11:04:50.286Z,90.20
2019-03-30T11:07:23.554Z,90.60
2019-03-30T11:09:55.324Z,91.20
2019-03-30T11:12:28.215Z,91.20
2019-03-30T11:14:59.885Z,90.00
2019-03-30T11:17:31.210Z,90.60
2019-03-30T11:20:02.608Z,90.00
2019-03-30T11:22:33.973Z,84.00
2019-03-30T11:25:08.502Z,86.50
2019-03-30T11:27:40.019Z,86.00
2019-03-30T11:30:11.413Z,84.60
2019-03-30T11:32:42.786Z,82.70
2019-03-30T11:35:14.047Z,88.30
2019-03-30T11:37:45.387Z,81.90
2019-03-30T11:40:22.581Z,82.70
2019-03-30T11:42:55.924Z,81.40
2019-03-30T11:45:27.306Z,81.00
2019-03-30T11:47:58.873Z,82.60
2019-03-30T11:50:30.194Z,81.00
2019-03-30T11:53:01.624Z,80.90
2019-03-30T11:55:32.942Z,83.50
2019-03-30T11:58:04.307Z,80.80
2019-03-30T12:00:35.649Z,80.90
2019-03-30T12:03:08.740Z,73.40
2019-03-30T12:05:42.113Z,68.60
2019-03-30T12:08:13.517Z,72.00
2019-03-30T12:10:50.995Z,74.70
2019-03-30T12:13:22.651Z,74.80
2019-03-30T12:15:53.966Z,71.00
2019-03-30T12:18:25.456Z,61.60
2019-03-30T12:20:56.803Z,62.20
2019-03-30T12:23:28.321Z,62.00
2019-03-30T12:25:59.566Z,65.20
2019-03-30T12:28:32.579Z,60.10
2019-03-30T12:31:03.901Z,57.60
2019-03-30T12:33:35.197Z,62.80
2019-03-30T12:36:06.583Z,58.40
2019-03-30T12:38:38.036Z,58.20
2019-03-30T12:41:09.413Z,58.50
2019-03-30T12:43:40.726Z,57.80
2019-03-30T12:46:12.091Z,58.10
2019-03-30T12:48:43.578Z,54.80
2019-03-30T12:51:14.950Z,55.40
2019-03-30T12:53:50.402Z,56.60
2019-03-30T12:56:20.913Z,54.80
2019-03-30T12:58:52.158Z,55.30
2019-03-30T13:01:23.635Z,58.50
2019-03-30T13:03:55.973Z,56.40
2019-03-30T13:06:27.283Z,58.80
2019-03-30T13:08:58.638Z,59.60
2019-03-30T13:11:29.966Z,55.00
2019-03-30T13:14:01.422Z,56.70
2019-03-30T13:16:32.943Z,56.00
2019-03-30T13:19:04.328Z,57.80
2019-03-30T13:21:35.630Z,53.30
2019-03-30T13:24:07.097Z,54.00
2019-03-30T13:26:38.494Z,55.60
2019-03-30T13:29:09.868Z,49.40
2019-03-30T13:31:42.093Z,49.80
2019-03-30T13:34:19.473Z,48.90
2019-03-30T13:36:50.957Z,52.50
2019-03-30T13:39:22.310Z,54.60
2019-03-30T13:41:53.698Z,55.50
2019-03-30T13:44:34.209Z,54.00
2019-03-30T13:47:05.652Z,52.70
2019-03-30T13:49:38.039Z,53.10
2019-03-30T13:52:11.358Z,52.30
2019-03-30T13:54:42.801Z,49.10
2019-03-30T13:57:15.068Z,50.40
2019-03-30T13:59:52.994Z,51.30
2019-03-30T14:02:28.521Z,50.90
2019-03-30T14:05:00.006Z,51.90
2019-03-30T14:07:32.913Z,53.60
2019-03-30T14:10:08.824Z,55.40
2019-03-30T14:12:40.290Z,52.10
2019-03-30T14:22:43.970Z,51.60
2019-03-30T14:25:22.099Z,52.00
2019-03-30T14:27:53.502Z,50.60
2019-03-30T14:30:25.105Z,50.30
2019-03-30T14:32:56.628Z,49.60
2019-03-30T14:35:29.700Z,51.30
2019-03-30T14:38:29.416Z,50.80
2019-03-30T14:41:04.000Z,50.30
2019-03-30T14:43:35.565Z,50.70
2019-03-30T14:46:09.591Z,50.10
2019-03-30T14:48:40.513Z,50.40
2019-03-30T14:51:15.899Z,50.10
2019-03-30T14:53:47.876Z,51.10
2019-03-30T14:56:19.119Z,50.70
2019-03-30T14:58:50.594Z,50.10
2019-03-30T15:01:25.297Z,50.00
2019-03-30T15:03:57.002Z,48.00
2019-03-30T15:06:29.567Z,46.50
2019-03-30T15:09:05.175Z,48.80
2019-03-30T15:11:38.085Z,48.10
2019-03-30T15:14:12.426Z,48.80
2019-03-30T15:16:43.739Z,48.20
2019-03-30T15:19:15.050Z,44.80
2019-03-30T15:21:46.391Z,46.80
2019-03-30T15:24:17.753Z,49.30
2019-03-30T15:26:59.697Z,46.30
2019-03-30T15:29:25.357Z,45.30
2019-03-30T15:31:56.755Z,46.80
2019-03-30T15:34:28.036Z,45.90
2019-03-30T15:36:59.357Z,46.80
2019-03-30T15:39:37.197Z,47.60
2019-03-30T15:42:08.601Z,47.40
2019-03-30T15:44:40.784Z,45.10
2019-03-30T15:47:12.315Z,46.40
2019-03-30T15:49:43.948Z,46.40
2019-03-30T15:52:15.584Z,48.50
2019-03-30T15:54:48.949Z,46.00
2019-03-30T15:57:20.319Z,46.40
2019-03-30T15:59:53.268Z,46.20
2019-03-30T16:02:25.622Z,46.20
2019-03-30T16:04:56.980Z,47.00
2019-03-30T16:07:29.298Z,45.60
2019-03-30T16:10:03.986Z,46.20
2019-03-30T16:12:35.483Z,45.90
2019-03-30T16:15:07.859Z,45.30
2019-03-30T16:17:40.930Z,45.40
2019-03-30T16:20:13.235Z,46.20
2019-03-30T16:22:46.185Z,47.30
2019-03-30T16:25:21.256Z,47.60
2019-03-30T16:27:52.493Z,46.60
2019-03-30T16:30:27.136Z,46.80
2019-03-30T16:32:58.466Z,47.60
2019-03-30T16:35:31.123Z,47.70
2019-03-30T16:38:02.605Z,48.10
2019-03-30T16:40:34.267Z,47.00
2019-03-30T16:43:08.688Z,47.50
2019-03-30T16:45:40.285Z,47.70
2019-03-30T16:48:14.628Z,45.90
2019-03-30T16:50:46.653Z,45.90
2019-03-30T16:53:18.137Z,47.20
2019-03-30T16:55:49.684Z,47.10
2019-03-30T16:58:21.037Z,44.30
2019-03-30T17:00:56.790Z,41.20
2019-03-30T17:03:25.746Z,41.40
2019-03-30T17:06:01.220Z,40.50
2019-03-30T17:08:32.499Z,39.20
2019-03-30T17:11:04.032Z,39.50
2019-03-30T17:13:35.264Z,40.50
2019-03-30T17:16:07.485Z,41.80
2019-03-30T17:18:39.083Z,42.70
2019-03-30T17:21:10.538Z,43.70
2019-03-30T17:23:41.879Z,43.80
2019-03-30T17:26:16.980Z,44.00
2019-03-30T17:28:48.440Z,44.60
2019-03-30T17:31:24.180Z,44.60
2019-03-30T17:33:55.433Z,44.90
2019-03-30T17:36:29.350Z,48.20
2019-03-30T17:39:04.026Z,48.80
2019-03-30T17:41:38.126Z,50.10
2019-03-30T17:44:09.702Z,48.90
2019-03-30T17:47:01.629Z,53.10
2019-03-30T17:49:32.063Z,48.90
2019-03-30T17:52:12.575Z,48.70
2019-03-30T17:58:30.058Z,49.30
2019-03-30T18:01:01.659Z,53.70
2019-03-30T18:03:33.131Z,53.90
2019-03-30T18:06:10.005Z,53.60
2019-03-30T18:08:49.605Z,52.00
2019-03-30T18:11:36.781Z,52.80
2019-03-30T18:14:08.015Z,53.90
2019-03-30T18:16:41.037Z,54.30
2019-03-30T18:22:34.368Z,56.80
2019-03-30T18:25:17.499Z,58.10
2019-03-30T18:27:55.639Z,58.90
2019-03-30T18:30:40.908Z,58.20
2019-03-30T18:33:12.296Z,59.30
2019-03-30T18:35:45.386Z,58.90
2019-03-30T18:38:17.596Z,59.40
2019-03-30T18:40:57.242Z,60.10
2019-03-30T18:43:42.510Z,58.40
2019-03-30T18:46:21.540Z,58.90
2019-03-30T18:48:53.003Z,58.80
2019-03-30T18:51:28.264Z,59.70
2019-03-30T18:54:02.299Z,59.20
2019-03-30T18:56:33.700Z,60.40
2019-03-30T18:59:05.104Z,63.00
2019-03-30T19:01:44.239Z,63.10
2019-03-30T19:04:16.076Z,63.50
2019-03-30T19:06:52.506Z,62.90
2019-03-30T19:09:24.030Z,65.30
2019-03-30T19:11:55.461Z,65.30
2019-03-30T19:14:27.055Z,62.70
2019-03-30T19:16:58.459Z,64.60
2019-03-30T19:19:34.889Z,62.60
2019-03-30T19:22:06.212Z,63.20
2019-03-30T19:24:37.622Z,63.50
2019-03-30T19:27:09.019Z,64.20
2019-03-30T19:29:40.680Z,65.60
2019-03-30T19:32:12.283Z,66.90
2019-03-30T19:34:43.809Z,69.40
2019-03-30T19:37:15.209Z,69.40
2019-03-30T19:39:49.350Z,71.10
2019-03-30T19:42:20.968Z,73.30
2019-03-30T19:44:54.031Z,79.10
2019-03-30T19:47:25.766Z,80.20
2019-03-30T19:49:57.286Z,79.90
2019-03-30T19:52:39.722Z,80.00
2019-03-30T19:55:02.158Z,77.90
2019-03-30T19:57:35.429Z,77.40
2019-03-30T20:00:12.784Z,82.70
2019-03-30T20:02:44.563Z,83.80
2019-03-30T20:05:16.860Z,83.40
2019-03-30T20:07:48.408Z,80.60
2019-03-30T20:10:20.208Z,84.90
2019-03-30T20:12:51.498Z,85.30
2019-03-30T20:15:22.963Z,87.20
2019-03-30T20:17:54.366Z,89.30
2019-03-30T20:20:25.965Z,90.40
2019-03-30T20:22:57.341Z,90.70
2019-03-30T20:25:28.733Z,90.80
2019-03-30T20:27:59.997Z,90.80
2019-03-30T20:30:31.484Z,91.50
2019-03-30T20:33:02.749Z,89.10
2019-03-30T20:35:36.152Z,89.90
2019-03-30T20:38:07.544Z,91.70
2019-03-30T20:40:40.174Z,91.70
2019-03-30T20:43:12.500Z,92.60
2019-03-30T20:45:43.899Z,92.20
2019-03-30T20:48:15.221Z,91.20
2019-03-30T20:50:46.675Z,91.80
2019-03-30T20:53:18.006Z,91.80
2019-03-30T20:55:49.384Z,92.10
2019-03-30T20:58:20.711Z,92.10
2019-03-30T21:00:52.171Z,92.10
2019-03-30T21:03:23.837Z,92.50
2019-03-30T21:05:55.601Z,92.40
2019-03-30T21:08:26.861Z,92.90
2019-03-30T21:10:58.305Z,92.70
2019-03-30T21:13:29.686Z,93.00
2019-03-30T21:16:01.215Z,92.90
2019-03-30T21:18:32.534Z,92.10
2019-03-30T21:21:03.900Z,92.80
2019-03-30T21:23:35.763Z,92.30
2019-03-30T21:26:08.222Z,93.20
2019-03-30T21:28:39.635Z,93.00
2019-03-30T21:31:11.024Z,92.50
2019-03-30T21:33:42.348Z,93.50
2019-03-30T21:36:13.712Z,92.80
2019-03-30T21:38:44.972Z,93.20
2019-03-30T21:41:16.274Z,93.60
2019-03-30T21:43:47.640Z,94.10
2019-03-30T21:46:19.210Z,94.60
2019-03-30T21:48:54.493Z,94.50
2019-03-30T21:51:28.628Z,95.10
2019-03-30T21:53:59.863Z,95.10
2019-03-30T21:56:31.307Z,94.40
2019-03-30T21:59:02.745Z,94.70
2019-03-30T22:01:34.182Z,94.90
2019-03-30T22:04:06.487Z,95.10
2019-03-30T22:06:38.318Z,94.20
2019-03-30T22:09:10.271Z,94.00
2019-03-30T22:11:41.706Z,94.00
2019-03-30T22:14:13.510Z,94.90
2019-03-30T22:16:44.882Z,95.00
2019-03-30T22:19:16.225Z,94.70
2019-03-30T22:21:47.505Z,94.90
2019-03-30T22:24:18.888Z,95.60
2019-03-30T22:26:50.253Z,96.00
2019-03-30T22:29:22.746Z,95.60
2019-03-30T22:31:55.060Z,96.30
2019-03-30T22:34:28.366Z,96.00
2019-03-30T22:36:59.752Z,95.60
2019-03-30T22:39:31.015Z,94.90
2019-03-30T22:42:02.313Z,95.70
2019-03-30T22:44:33.602Z,96.10
2019-03-30T22:47:05.651Z,95.80
2019-03-30T22:49:37.975Z,96.40
2019-03-30T22:52:10.936Z,96.20
2019-03-30T22:54:42.226Z,95.40
2019-03-30T22:57:13.658Z,95.60
2019-03-30T22:59:45.053Z,95.90
2019-03-30T23:02:16.533Z,95.30
2019-03-30T23:04:47.912Z,95.60
2019-03-30T23:07:19.342Z,96.10
2019-03-30T23:09:50.627Z,96.10
2019-03-30T23:12:21.954Z,95.90
2019-03-30T23:14:54.784Z,95.50
2019-03-30T23:17:26.337Z,95.70
2019-03-30T23:19:57.762Z,96.10
2019-03-30T23:22:30.593Z,96.10
2019-03-30T23:25:01.838Z,96.30
2019-03-30T23:27:33.467Z,97.00
2019-03-30T23:30:07.682Z,97.40
2019-03-30T23:32:39.268Z,96.70
2019-03-30T23:35:10.840Z,97.40
2019-03-30T23:37:43.800Z,97.20
2019-03-30T23:40:15.253Z,97.20
2019-03-30T23:42:46.682Z,96.60
2019-03-30T23:45:18.150Z,96.30
2019-03-30T23:47:49.699Z,96.60
2019-03-30T23:50:20.931Z,96.80
2019-03-30T23:52:52.354Z,96.00
2019-03-30T23:55:23.609Z,96.20
2019-03-30T23:57:54.971Z,96.80
